createdAt,value
2023-08-14T00:00:24.585Z,21.48
2023-08-14T00:02:52.865Z,21.50
2023-08-14T00:05:20.858Z,21.50
2023-08-14T00:07:50.283Z,21.52
2023-08-14T00:10:18.338Z,21.50
2023-08-14T00:12:46.333Z,21.41
2023-08-14T00:15:15.370Z,21.35
2023-08-14T00:17:43.483Z,21.30
2023-08-14T00:20:12.679Z,21.23
2023-08-14T00:22:40.744Z,21.19
2023-08-14T00:25:11.666Z,21.16
2023-08-14T00:27:39.766Z,21.17
2023-08-14T00:30:08.719Z,21.19
2023-08-14T00:32:36.741Z,21.20
2023-08-14T00:35:05.401Z,21.21
2023-08-14T00:37:43.923Z,21.21
2023-08-14T00:40:14.953Z,21.22
2023-08-14T00:42:46.130Z,21.26
2023-08-14T00:45:14.281Z,21.27
2023-08-14T00:47:44.620Z,21.27
2023-08-14T00:50:13.385Z,21.28
2023-08-14T00:52:43.928Z,21.29
2023-08-14T00:55:17.685Z,21.28
2023-08-14T00:57:46.952Z,21.30
2023-08-14T01:00:16.610Z,21.27
2023-08-14T01:02:45.985Z,21.26
2023-08-14T01:05:14.312Z,21.27
2023-08-14T01:07:42.349Z,21.26
2023-08-14T01:10:12.544Z,21.22
2023-08-14T01:12:48.557Z,21.20
2023-08-14T01:15:20.931Z,21.21
2023-08-14T01:17:53.012Z,21.23
2023-08-14T01:20:22.904Z,21.21
2023-08-14T01:23:00.597Z,21.22
2023-08-14T01:25:32.799Z,21.18
2023-08-14T01:28:01.349Z,21.14
2023-08-14T01:30:29.474Z,21.15
2023-08-14T01:32:57.721Z,21.06
2023-08-14T01:35:28.537Z,21.06
2023-08-14T01:38:05.330Z,21.08
2023-08-14T01:40:43.670Z,21.11
2023-08-14T01:43:17.028Z,21.06
2023-08-14T01:45:45.247Z,21.06
2023-08-14T01:48:15.598Z,21.07
2023-08-14T01:50:45.250Z,21.08
2023-08-14T01:53:13.323Z,21.12
2023-08-14T01:55:42.974Z,21.15
2023-08-14T01:58:10.975Z,21.14
2023-08-14T02:00:39.239Z,21.23
2023-08-14T02:03:08.520Z,21.27
2023-08-14T02:05:36.881Z,21.22
2023-08-14T02:08:05.510Z,21.06
2023-08-14T02:10:33.694Z,20.97
2023-08-14T02:13:03.132Z,20.90
2023-08-14T02:15:31.120Z,20.94
2023-08-14T02:17:59.856Z,20.96
2023-08-14T02:20:28.005Z,21.02
2023-08-14T02:22:55.987Z,21.16
2023-08-14T02:25:24.019Z,21.15
2023-08-14T02:27:52.065Z,21.14
2023-08-14T02:30:21.565Z,21.15
2023-08-14T02:32:49.807Z,21.13
2023-08-14T02:35:18.122Z,21.17
2023-08-14T02:37:46.249Z,21.18
2023-08-14T02:40:14.435Z,21.18
2023-08-14T02:42:42.458Z,21.16
2023-08-14T02:45:11.378Z,21.18
2023-08-14T02:47:41.141Z,21.16
2023-08-14T02:50:09.724Z,21.13
2023-08-14T02:52:37.641Z,21.07
2023-08-14T02:55:06.533Z,21.05
2023-08-14T02:57:34.656Z,20.98
2023-08-14T03:00:02.809Z,20.96
2023-08-14T03:02:31.002Z,20.93
2023-08-14T03:05:00.510Z,20.82
2023-08-14T03:07:28.777Z,20.82
2023-08-14T03:09:57.655Z,20.77
2023-08-14T03:12:25.732Z,20.75
2023-08-14T03:14:53.676Z,20.74
2023-08-14T03:17:21.760Z,20.74
2023-08-14T03:19:49.797Z,20.76
2023-08-14T03:22:19.739Z,20.76
2023-08-14T03:24:47.971Z,20.73
2023-08-14T03:27:16.197Z,20.75
2023-08-14T03:29:44.232Z,20.77
2023-08-14T03:32:12.314Z,20.76
2023-08-14T03:34:40.405Z,20.76
2023-08-14T03:37:10.192Z,20.74
2023-08-14T03:39:41.832Z,20.70
2023-08-14T03:42:09.891Z,20.69
2023-08-14T03:44:38.014Z,20.64
2023-08-14T03:47:06.199Z,20.56
2023-08-14T03:49:34.127Z,20.46
2023-08-14T03:52:02.120Z,20.46
2023-08-14T03:54:30.064Z,20.45
2023-08-14T03:56:59.751Z,20.44
2023-08-14T03:59:27.723Z,20.44
2023-08-14T04:01:55.801Z,20.42
2023-08-14T04:04:23.870Z,20.42
2023-08-14T04:06:52.008Z,20.48
2023-08-14T04:09:20.148Z,20.47
2023-08-14T04:11:48.301Z,20.42
2023-08-14T04:14:17.859Z,20.39
2023-08-14T04:16:46.799Z,20.31
2023-08-14T04:19:16.547Z,20.24
2023-08-14T04:21:45.164Z,20.23
2023-08-14T04:24:13.568Z,20.17
2023-08-14T04:26:42.021Z,20.17
2023-08-14T04:29:11.653Z,20.16
2023-08-14T04:31:42.413Z,20.15
2023-08-14T04:34:11.802Z,20.15
2023-08-14T04:36:40.155Z,20.12
2023-08-14T04:39:08.836Z,20.12
2023-08-14T04:41:37.186Z,20.12
2023-08-14T04:44:05.798Z,20.13
2023-08-14T04:46:48.991Z,20.18
2023-08-14T04:49:23.254Z,20.19
2023-08-14T04:51:51.239Z,20.20
2023-08-14T04:54:19.273Z,20.20
2023-08-14T04:56:47.462Z,20.20
2023-08-14T04:59:15.422Z,20.21
2023-08-14T05:01:43.900Z,20.26
2023-08-14T05:04:12.111Z,20.22
2023-08-14T05:06:41.878Z,20.23
2023-08-14T05:09:24.056Z,20.26
2023-08-14T05:11:54.277Z,20.26
2023-08-14T05:14:22.248Z,20.28
2023-08-14T05:16:50.268Z,20.28
2023-08-14T05:19:18.436Z,20.31
2023-08-14T05:21:48.485Z,20.33
2023-08-14T05:24:17.349Z,20.35
2023-08-14T05:26:45.680Z,20.37
2023-08-14T05:29:13.626Z,20.39
2023-08-14T05:31:41.713Z,20.43
2023-08-14T05:34:09.770Z,20.42
2023-08-14T05:36:37.916Z,20.42
2023-08-14T05:39:09.779Z,20.44
2023-08-14T05:41:37.841Z,20.49
2023-08-14T05:44:06.828Z,20.55
2023-08-14T05:46:34.969Z,20.61
2023-08-14T05:49:05.278Z,20.71
2023-08-14T05:51:33.551Z,20.85
2023-08-14T05:54:01.579Z,20.90
2023-08-14T05:56:31.003Z,21.02
2023-08-14T05:58:59.065Z,21.06
2023-08-14T06:01:27.751Z,21.09
2023-08-14T06:03:56.188Z,21.14
2023-08-14T06:06:24.606Z,21.15
2023-08-14T06:08:52.619Z,21.19
2023-08-14T06:11:20.737Z,21.21
2023-08-14T06:13:50.119Z,21.26
2023-08-14T06:16:18.200Z,21.26
2023-08-14T06:18:46.205Z,21.29
2023-08-14T06:21:14.207Z,21.29
2023-08-14T06:23:42.240Z,21.32
2023-08-14T06:26:10.655Z,21.36
2023-08-14T06:28:38.727Z,21.38
2023-08-14T06:31:08.516Z,21.36
2023-08-14T06:33:38.930Z,21.37
2023-08-14T06:36:08.098Z,21.35
2023-08-14T06:38:36.495Z,21.39
2023-08-14T06:41:04.637Z,21.40
2023-08-14T06:43:33.265Z,21.45
2023-08-14T06:46:02.281Z,21.49
2023-08-14T06:48:33.698Z,21.53
2023-08-14T06:51:01.746Z,21.59
2023-08-14T06:53:29.776Z,21.67
2023-08-14T06:55:57.886Z,21.64
2023-08-14T06:58:25.921Z,21.66
2023-08-14T07:00:54.818Z,21.64
2023-08-14T07:03:23.060Z,21.64
2023-08-14T07:05:52.875Z,21.64
2023-08-14T07:08:21.089Z,21.68
2023-08-14T07:10:49.446Z,21.69
2023-08-14T07:13:17.499Z,21.73
2023-08-14T07:15:48.646Z,21.79
2023-08-14T07:18:17.203Z,21.85
2023-08-14T07:20:46.366Z,21.92
2023-08-14T07:23:16.835Z,22.11
2023-08-14T07:25:45.120Z,22.33
2023-08-14T07:28:13.674Z,22.54
2023-08-14T07:30:41.892Z,22.80
2023-08-14T07:33:11.888Z,22.94
2023-08-14T07:35:40.273Z,23.18
2023-08-14T07:38:08.312Z,23.38
2023-08-14T07:40:37.676Z,23.57
2023-08-14T07:43:08.341Z,23.79
2023-08-14T07:45:37.135Z,24.03
2023-08-14T07:48:05.732Z,24.26
2023-08-14T07:50:33.823Z,24.48
2023-08-14T07:53:01.941Z,24.66
2023-08-14T07:55:29.996Z,24.88
2023-08-14T07:57:59.390Z,25.08
2023-08-14T08:00:27.699Z,25.27
2023-08-14T08:02:55.749Z,25.47
2023-08-14T08:05:23.906Z,25.62
2023-08-14T08:07:52.667Z,25.78
2023-08-14T08:10:21.242Z,25.94
2023-08-14T08:12:51.561Z,26.13
2023-08-14T08:15:21.437Z,26.23
2023-08-14T08:17:49.476Z,26.32
2023-08-14T08:20:17.808Z,26.41
2023-08-14T08:22:45.794Z,26.55
2023-08-14T08:25:14.265Z,26.67
2023-08-14T08:27:42.312Z,26.81
2023-08-14T08:30:11.246Z,26.92
2023-08-14T08:32:41.426Z,27.06
2023-08-14T08:35:10.228Z,27.12
2023-08-14T08:37:38.268Z,27.16
2023-08-14T08:40:08.108Z,27.25
2023-08-14T08:42:36.443Z,27.32
2023-08-14T08:45:07.018Z,27.49
2023-08-14T08:47:39.972Z,27.53
2023-08-14T08:50:10.988Z,27.73
2023-08-14T08:52:41.317Z,27.79
2023-08-14T08:55:10.683Z,27.91
2023-08-14T08:57:40.086Z,28.03
2023-08-14T09:00:09.356Z,28.08
2023-08-14T09:02:37.624Z,28.14
2023-08-14T09:05:06.359Z,28.31
2023-08-14T09:07:36.405Z,28.45
2023-08-14T09:10:04.727Z,28.56
2023-08-14T09:12:32.948Z,28.64
2023-08-14T09:15:06.654Z,28.75
2023-08-14T09:17:35.599Z,28.86
2023-08-14T09:20:11.813Z,29.00
2023-08-14T09:22:45.110Z,29.06
2023-08-14T09:25:13.974Z,29.18
2023-08-14T09:27:43.887Z,29.25
2023-08-14T09:30:14.075Z,29.35
2023-08-14T09:32:42.080Z,29.40
2023-08-14T09:35:10.506Z,29.44
2023-08-14T09:37:38.594Z,29.53
2023-08-14T09:40:14.354Z,29.58
2023-08-14T09:42:43.816Z,29.62
2023-08-14T09:45:13.428Z,29.71
2023-08-14T09:47:44.732Z,29.83
2023-08-14T09:50:15.167Z,29.83
2023-08-14T09:52:45.749Z,29.87
2023-08-14T09:55:16.691Z,29.95
2023-08-14T09:57:45.779Z,30.00
2023-08-14T10:00:14.757Z,30.08
2023-08-14T10:02:46.439Z,30.14
2023-08-14T10:05:15.269Z,30.18
2023-08-14T10:07:44.680Z,30.26
2023-08-14T10:10:15.001Z,30.40
2023-08-14T10:12:51.059Z,30.41
2023-08-14T10:15:23.817Z,30.55
2023-08-14T10:17:56.385Z,30.60
2023-08-14T10:20:25.645Z,30.76
2023-08-14T10:22:54.887Z,30.75
2023-08-14T10:25:24.482Z,30.81
2023-08-14T10:27:54.734Z,30.89
2023-08-14T10:30:25.019Z,30.99
2023-08-14T10:32:54.030Z,31.00
2023-08-14T10:35:24.088Z,31.13
2023-08-14T10:38:04.914Z,31.18
2023-08-14T10:40:37.256Z,31.17
2023-08-14T10:43:08.530Z,31.19
2023-08-14T10:45:36.589Z,31.18
2023-08-14T10:48:11.068Z,31.05
2023-08-14T10:50:40.261Z,30.97
2023-08-14T10:53:08.324Z,30.93
2023-08-14T10:55:41.708Z,30.80
2023-08-14T10:58:42.363Z,30.91
2023-08-14T11:01:11.968Z,30.88
2023-08-14T11:04:04.646Z,30.81
2023-08-14T11:07:09.913Z,31.14
2023-08-14T11:09:39.439Z,31.35
2023-08-14T11:12:09.444Z,31.51
2023-08-14T11:14:40.811Z,31.67
2023-08-14T11:17:10.743Z,31.80
2023-08-14T11:19:39.786Z,31.89
2023-08-14T11:22:33.491Z,31.74
2023-08-14T11:25:02.564Z,31.51
2023-08-14T11:27:38.057Z,31.33
2023-08-14T11:30:15.190Z,31.21
2023-08-14T11:33:51.396Z,30.95
2023-08-14T11:36:24.994Z,30.76
2023-08-14T11:38:58.288Z,30.72
2023-08-14T11:43:59.713Z,31.01
2023-08-14T11:46:29.614Z,31.21
2023-08-14T11:48:58.777Z,31.32
2023-08-14T11:51:27.490Z,31.53
2023-08-14T11:53:56.439Z,31.60
2023-08-14T11:56:25.089Z,31.80
2023-08-14T11:59:03.673Z,31.78
2023-08-14T12:01:39.531Z,31.88
2023-08-14T12:04:08.503Z,32.04
2023-08-14T12:06:37.004Z,32.18
2023-08-14T12:09:09.282Z,32.26
2023-08-14T12:11:38.842Z,32.39
2023-08-14T12:14:07.594Z,32.67
2023-08-14T12:16:41.921Z,32.83
2023-08-14T12:19:15.190Z,32.76
2023-08-14T12:21:43.409Z,32.67
2023-08-14T12:24:13.208Z,32.39
2023-08-14T12:26:44.854Z,32.31
2023-08-14T12:29:15.789Z,32.19
2023-08-14T12:31:45.797Z,32.06
2023-08-14T12:34:14.804Z,31.78
2023-08-14T12:36:43.099Z,31.63
2023-08-14T12:39:14.496Z,31.59
2023-08-14T12:41:42.906Z,31.41
2023-08-14T12:44:11.036Z,31.34
2023-08-14T12:46:39.377Z,31.25
2023-08-14T12:49:09.048Z,31.02
2023-08-14T12:51:37.219Z,30.85
2023-08-14T12:54:05.904Z,30.67
2023-08-14T12:56:34.405Z,30.60
2023-08-14T12:59:02.619Z,30.40
2023-08-14T13:01:30.864Z,30.30
2023-08-14T13:04:00.254Z,30.10
2023-08-14T13:06:30.791Z,30.09
2023-08-14T13:08:59.104Z,29.83
2023-08-14T13:11:27.619Z,29.37
2023-08-14T13:14:48.141Z,28.92
2023-08-14T13:17:16.310Z,28.44
2023-08-14T13:19:45.639Z,28.37
2023-08-14T13:22:17.302Z,28.22
2023-08-14T13:24:46.598Z,28.21
2023-08-14T13:27:14.932Z,28.25
2023-08-14T13:29:43.172Z,28.23
2023-08-14T13:32:11.533Z,28.20
2023-08-14T13:34:40.074Z,28.28
2023-08-14T13:37:08.405Z,28.45
2023-08-14T13:39:40.399Z,28.40
2023-08-14T13:42:10.531Z,28.57
2023-08-14T13:44:38.625Z,28.63
2023-08-14T13:47:07.468Z,28.69
2023-08-14T13:49:36.615Z,28.72
2023-08-14T13:52:05.032Z,28.77
2023-08-14T13:54:35.967Z,28.71
2023-08-14T13:57:05.667Z,28.88
2023-08-14T13:59:35.130Z,29.08
2023-08-14T14:02:04.112Z,29.22
2023-08-14T14:04:32.507Z,29.23
2023-08-14T14:07:00.730Z,29.26
2023-08-14T14:09:29.015Z,29.18
2023-08-14T14:11:57.458Z,29.10
2023-08-14T14:14:27.280Z,28.98
2023-08-14T14:16:59.098Z,29.06
2023-08-14T14:19:27.715Z,28.98
2023-08-14T14:21:58.127Z,28.94
2023-08-14T14:24:26.876Z,28.98
2023-08-14T14:26:54.863Z,28.97
2023-08-14T14:29:22.883Z,28.91
2023-08-14T14:31:52.475Z,28.91
2023-08-14T14:34:20.850Z,28.98
2023-08-14T14:36:49.034Z,29.08
2023-08-14T14:39:17.235Z,29.22
2023-08-14T14:41:45.509Z,29.38
2023-08-14T14:44:13.650Z,29.57
2023-08-14T14:46:43.866Z,29.72
2023-08-14T14:49:13.370Z,29.96
2023-08-14T14:51:41.389Z,29.92
2023-08-14T14:54:09.846Z,29.79
2023-08-14T14:56:37.835Z,29.68
2023-08-14T14:59:06.024Z,29.44
2023-08-14T15:01:34.329Z,29.35
2023-08-14T15:04:02.494Z,29.27
2023-08-14T15:06:32.100Z,29.11
2023-08-14T15:09:00.318Z,29.04
2023-08-14T15:11:28.410Z,29.02
2023-08-14T15:13:56.544Z,29.01
2023-08-14T15:16:25.092Z,29.10
2023-08-14T15:18:53.206Z,29.10
2023-08-14T15:21:21.302Z,29.17
2023-08-14T15:23:50.845Z,29.20
2023-08-14T15:26:18.922Z,29.37
2023-08-14T15:28:47.355Z,29.39
2023-08-14T15:31:15.441Z,29.40
2023-08-14T15:33:43.541Z,29.52
2023-08-14T15:36:11.561Z,29.58
2023-08-14T15:38:39.724Z,29.63
2023-08-14T15:41:11.376Z,29.73
2023-08-14T15:43:39.672Z,29.74
2023-08-14T15:46:08.633Z,29.82
2023-08-14T15:48:36.829Z,29.78
2023-08-14T15:51:05.188Z,29.85
2023-08-14T15:53:33.319Z,29.91
2023-08-14T15:56:01.459Z,29.91
2023-08-14T15:58:30.835Z,30.03
2023-08-14T16:00:59.777Z,30.06
2023-08-14T16:03:27.918Z,30.04
2023-08-14T16:05:58.743Z,30.13
2023-08-14T16:08:26.870Z,30.11
2023-08-14T16:10:54.954Z,30.10
2023-08-14T16:13:23.100Z,30.08
2023-08-14T16:15:52.599Z,30.11
2023-08-14T16:18:20.748Z,30.02
2023-08-14T16:20:48.907Z,30.02
2023-08-14T16:23:17.069Z,30.00
2023-08-14T16:25:45.093Z,29.93
2023-08-14T16:28:13.487Z,29.91
2023-08-14T16:30:42.340Z,29.92
2023-08-14T16:33:11.911Z,29.89
2023-08-14T16:35:40.381Z,29.87
2023-08-14T16:38:08.704Z,29.89
2023-08-14T16:40:42.648Z,29.88
2023-08-14T16:43:10.773Z,29.90
2023-08-14T16:45:39.478Z,29.88
2023-08-14T16:48:08.062Z,29.85
2023-08-14T16:50:39.701Z,29.81
2023-08-14T16:53:07.873Z,29.83
2023-08-14T16:55:36.251Z,29.80
2023-08-14T16:58:04.419Z,29.76
2023-08-14T17:00:32.730Z,29.73
2023-08-14T17:03:03.669Z,29.72
2023-08-14T17:05:32.683Z,29.73
2023-08-14T17:08:02.187Z,29.69
2023-08-14T17:10:30.303Z,29.65
2023-08-14T17:12:58.644Z,29.60
2023-08-14T17:15:26.685Z,29.57
2023-08-14T17:17:54.869Z,29.51
2023-08-14T17:20:22.960Z,29.50
2023-08-14T17:22:51.217Z,29.41
2023-08-14T17:25:20.941Z,29.32
2023-08-14T17:27:49.036Z,29.25
2023-08-14T17:30:17.265Z,29.19
2023-08-14T17:32:45.456Z,29.08
2023-08-14T17:35:13.861Z,29.03
2023-08-14T17:37:42.059Z,28.90
2023-08-14T17:40:11.490Z,28.80
2023-08-14T17:42:41.004Z,28.68
2023-08-14T17:45:09.812Z,28.58
2023-08-14T17:47:37.870Z,28.51
2023-08-14T17:50:07.405Z,28.40
2023-08-14T17:52:35.468Z,28.34
2023-08-14T17:55:03.605Z,28.31
2023-08-14T17:57:31.725Z,28.33
2023-08-14T18:00:01.276Z,28.35
2023-08-14T18:02:29.679Z,28.27
2023-08-14T18:04:58.069Z,28.22
2023-08-14T18:07:26.370Z,28.17
2023-08-14T18:09:57.051Z,28.10
2023-08-14T18:12:25.861Z,28.06
2023-08-14T18:14:54.165Z,28.02
2023-08-14T18:17:23.869Z,27.98
2023-08-14T18:19:52.020Z,27.84
2023-08-14T18:22:20.284Z,27.79
2023-08-14T18:24:48.446Z,27.76
2023-08-14T18:27:16.481Z,27.68
2023-08-14T18:29:44.347Z,27.59
2023-08-14T18:32:13.551Z,27.50
2023-08-14T18:34:44.005Z,27.39
2023-08-14T18:37:12.020Z,27.30
2023-08-14T18:39:40.041Z,27.19
2023-08-14T18:42:07.983Z,27.09
2023-08-14T18:44:35.982Z,27.01
2023-08-14T18:47:03.957Z,26.95
2023-08-14T18:49:33.107Z,26.87
2023-08-14T18:52:02.489Z,26.78
2023-08-14T18:54:30.838Z,26.78
2023-08-14T18:56:58.779Z,26.71
2023-08-14T18:59:27.042Z,26.66
2023-08-14T19:01:55.160Z,26.63
2023-08-14T19:04:40.931Z,26.59
2023-08-14T19:07:11.560Z,26.55
2023-08-14T19:09:39.745Z,26.51
2023-08-14T19:12:09.121Z,26.47
2023-08-14T19:14:37.446Z,26.45
2023-08-14T19:17:05.615Z,26.43
2023-08-14T19:19:33.901Z,26.38
2023-08-14T19:22:01.917Z,26.39
2023-08-14T19:24:31.528Z,26.31
2023-08-14T19:26:59.578Z,26.22
2023-08-14T19:29:27.686Z,26.18
2023-08-14T19:31:55.674Z,26.15
2023-08-14T19:34:23.854Z,26.13
2023-08-14T19:36:51.776Z,26.08
2023-08-14T19:39:19.932Z,26.00
2023-08-14T19:41:50.409Z,25.95
2023-08-14T19:44:18.928Z,25.95
2023-08-14T19:46:47.037Z,25.92
2023-08-14T19:49:15.547Z,25.92
2023-08-14T19:51:43.864Z,25.86
2023-08-14T19:54:11.815Z,25.84
2023-08-14T19:56:39.759Z,25.77
2023-08-14T19:59:09.522Z,25.72
2023-08-14T20:01:37.712Z,25.70
2023-08-14T20:04:09.428Z,25.61
2023-08-14T20:06:37.551Z,25.53
2023-08-14T20:09:06.429Z,25.49
2023-08-14T20:11:34.409Z,25.46
2023-08-14T20:14:02.412Z,25.47
2023-08-14T20:16:31.970Z,25.43
2023-08-14T20:19:00.234Z,25.39
2023-08-14T20:21:28.358Z,25.38
2023-08-14T20:23:56.333Z,25.37
2023-08-14T20:26:24.607Z,25.35
2023-08-14T20:28:54.772Z,25.32
2023-08-14T20:31:23.688Z,25.21
2023-08-14T20:33:53.681Z,25.16
2023-08-14T20:36:22.394Z,25.11
2023-08-14T20:38:50.709Z,25.07
2023-08-14T20:41:19.866Z,25.03
2023-08-14T20:43:47.972Z,24.99
2023-08-14T20:46:16.148Z,24.94
2023-08-14T20:48:44.278Z,24.93
2023-08-14T20:51:13.964Z,24.90
2023-08-14T20:53:41.976Z,24.85
2023-08-14T20:56:10.086Z,24.88
2023-08-14T20:58:38.187Z,24.87
2023-08-14T21:01:06.134Z,24.88
2023-08-14T21:03:34.215Z,24.85
2023-08-14T21:06:02.319Z,24.82
2023-08-14T21:08:31.936Z,24.85
2023-08-14T21:11:02.418Z,24.80
2023-08-14T21:13:30.764Z,24.77
2023-08-14T21:15:59.298Z,24.73
2023-08-14T21:18:27.720Z,24.68
2023-08-14T21:20:55.679Z,24.66
2023-08-14T21:23:23.615Z,24.67
2023-08-14T21:25:53.005Z,24.63
2023-08-14T21:28:21.175Z,24.61
2023-08-14T21:30:49.274Z,24.61
2023-08-14T21:33:17.269Z,24.58
2023-08-14T21:35:48.101Z,24.54
2023-08-14T21:38:16.101Z,24.48
2023-08-14T21:40:43.982Z,24.43
2023-08-14T21:43:13.726Z,24.42
2023-08-14T21:45:42.162Z,24.40
2023-08-14T21:48:10.201Z,24.34
2023-08-14T21:50:38.384Z,24.27
2023-08-14T21:53:06.445Z,24.21
2023-08-14T21:55:34.793Z,24.16
2023-08-14T21:58:02.725Z,24.15
2023-08-14T22:00:32.426Z,24.15
2023-08-14T22:03:00.360Z,24.16
2023-08-14T22:05:28.341Z,24.14
2023-08-14T22:07:56.319Z,24.17
2023-08-14T22:10:24.337Z,24.22
2023-08-14T22:12:52.269Z,24.16
2023-08-14T22:15:22.509Z,24.11
2023-08-14T22:17:54.203Z,24.10
2023-08-14T22:20:22.545Z,24.12
2023-08-14T22:22:50.521Z,24.09
2023-08-14T22:25:18.595Z,24.06
2023-08-14T22:27:46.674Z,24.03
2023-08-14T22:30:15.780Z,23.97
2023-08-14T22:32:43.728Z,23.91
2023-08-14T22:35:13.381Z,23.93
2023-08-14T22:37:41.749Z,23.94
2023-08-14T22:40:11.019Z,23.95
2023-08-14T22:42:39.057Z,23.96
2023-08-14T22:45:09.058Z,23.97
2023-08-14T22:47:37.161Z,23.97
2023-08-14T22:50:05.899Z,24.00
2023-08-14T22:52:35.182Z,24.06
2023-08-14T22:55:03.168Z,24.12
2023-08-14T22:57:31.141Z,24.13
2023-08-14T22:59:59.107Z,24.13
2023-08-14T23:02:27.094Z,24.14
2023-08-14T23:04:54.999Z,24.14
2023-08-14T23:07:23.251Z,24.10
2023-08-14T23:09:52.826Z,24.11
2023-08-14T23:12:20.878Z,24.09
2023-08-14T23:14:48.812Z,24.09
2023-08-14T23:17:16.836Z,24.07
2023-08-14T23:19:45.598Z,24.06
2023-08-14T23:22:13.630Z,24.06
2023-08-14T23:24:42.522Z,24.05
2023-08-14T23:27:11.964Z,23.99
2023-08-14T23:29:39.913Z,23.97
2023-08-14T23:32:08.172Z,23.98
2023-08-14T23:34:36.173Z,23.92
2023-08-14T23:37:04.184Z,23.91
2023-08-14T23:39:32.215Z,23.83
2023-08-14T23:42:00.223Z,23.77
2023-08-14T23:44:30.189Z,23.67
2023-08-14T23:46:58.526Z,23.64
2023-08-14T23:49:26.590Z,23.54
2023-08-14T23:51:54.519Z,23.48
2023-08-14T23:54:22.793Z,23.52
2023-08-14T23:56:50.804Z,23.56
2023-08-14T23:59:18.850Z,23.54
